createdAt,value
2023-01-27T00:02:38.848Z,78.66
2023-01-27T00:06:51.230Z,78.78
2023-01-27T00:11:22.102Z,78.85
2023-01-27T00:15:35.415Z,79.44
2023-01-27T00:19:48.233Z,78.98
2023-01-27T00:24:18.986Z,77.04
2023-01-27T00:28:31.521Z,76.35
2023-01-27T00:33:02.188Z,77.15
2023-01-27T00:37:14.925Z,77.46
2023-01-27T00:41:29.210Z,77.56
2023-01-27T00:45:51.480Z,78.38
2023-01-27T00:50:12.915Z,78.80
2023-01-27T00:54:26.470Z,77.35
2023-01-27T00:58:39.387Z,78.31
2023-01-27T01:03:01.107Z,76.69
2023-01-27T01:07:16.561Z,77.29
2023-01-27T01:11:29.483Z,70.53
2023-01-27T01:15:42.818Z,70.13
2023-01-27T01:19:55.156Z,69.25
2023-01-27T01:24:07.557Z,71.05
2023-01-27T01:28:21.574Z,70.88
2023-01-27T01:32:36.592Z,70.87
2023-01-27T01:36:48.986Z,72.26
2023-01-27T01:41:04.104Z,71.65
2023-01-27T01:45:39.610Z,75.24
2023-01-27T01:49:51.935Z,79.26
2023-01-27T01:54:09.837Z,81.37
2023-01-27T01:58:23.720Z,81.16
2023-01-27T02:02:37.414Z,81.23
2023-01-27T02:07:20.399Z,80.67
2023-01-27T02:11:32.897Z,81.86
2023-01-27T02:15:47.896Z,82.26
2023-01-27T02:20:32.200Z,83.70
2023-01-27T02:24:50.972Z,84.01
2023-01-27T02:29:06.686Z,85.20
2023-01-27T02:33:19.100Z,84.36
2023-01-27T02:37:33.232Z,85.17
2023-01-27T02:41:51.463Z,85.55
2023-01-27T02:46:04.541Z,86.03
2023-01-27T02:50:17.980Z,86.30
2023-01-27T02:54:31.201Z,86.17
2023-01-27T02:58:43.863Z,85.89
2023-01-27T03:03:02.420Z,85.94
2023-01-27T03:07:14.791Z,86.16
2023-01-27T03:11:45.439Z,86.04
2023-01-27T03:16:20.226Z,85.95
2023-01-27T03:20:32.584Z,85.76
2023-01-27T03:24:45.054Z,85.53
2023-01-27T03:29:17.172Z,85.51
2023-01-27T03:33:31.878Z,85.00
2023-01-27T03:38:13.213Z,84.98
2023-01-27T03:42:43.919Z,85.51
2023-01-27T03:46:56.251Z,85.03
2023-01-27T03:51:10.255Z,85.56
2023-01-27T03:55:23.447Z,86.09
2023-01-27T03:59:36.232Z,86.72
2023-01-27T04:04:07.802Z,86.06
2023-01-27T04:08:21.349Z,86.12
2023-01-27T04:12:33.743Z,86.86
2023-01-27T04:16:46.723Z,86.47
2023-01-27T04:21:00.867Z,87.18
2023-01-27T04:25:15.698Z,86.69
2023-01-27T04:29:30.911Z,87.03
2023-01-27T04:33:45.489Z,86.76
2023-01-27T04:37:58.065Z,87.82
2023-01-27T04:42:10.317Z,87.55
2023-01-27T04:46:23.078Z,87.25
2023-01-27T04:50:36.197Z,87.68
2023-01-27T04:54:48.490Z,86.94
2023-01-27T04:59:02.881Z,88.21
2023-01-27T05:03:19.061Z,87.74
2023-01-27T05:07:32.567Z,87.87
2023-01-27T05:11:44.934Z,87.79
2023-01-27T05:16:20.170Z,87.09
2023-01-27T05:20:32.584Z,87.08
2023-01-27T05:24:46.876Z,86.92
2023-01-27T05:29:01.018Z,86.68
2023-01-27T05:33:14.025Z,87.24
2023-01-27T05:37:30.113Z,87.14
2023-01-27T05:41:45.043Z,86.30
2023-01-27T05:46:08.228Z,86.34
2023-01-27T05:50:20.555Z,86.11
2023-01-27T05:54:34.005Z,85.98
2023-01-27T05:58:47.023Z,84.95
2023-01-27T06:02:59.694Z,85.19
2023-01-27T06:07:12.098Z,85.21
2023-01-27T06:11:25.337Z,85.60
2023-01-27T06:15:41.030Z,85.21
2023-01-27T06:19:53.430Z,85.29
2023-01-27T06:24:06.222Z,84.61
2023-01-27T06:28:33.704Z,84.40
2023-01-27T06:32:46.029Z,83.58
2023-01-27T06:36:58.403Z,82.87
2023-01-27T06:41:12.427Z,82.42
2023-01-27T06:45:25.885Z,81.14
2023-01-27T06:49:38.263Z,80.83
2023-01-27T06:53:55.426Z,80.40
2023-01-27T06:58:09.142Z,78.19
2023-01-27T07:02:22.241Z,77.38
2023-01-27T07:06:34.592Z,75.99
2023-01-27T07:10:46.956Z,74.09
2023-01-27T07:14:59.334Z,74.89
2023-01-27T07:19:12.867Z,76.20
2023-01-27T07:23:25.356Z,77.17
2023-01-27T07:27:37.769Z,76.85
2023-01-27T07:31:52.093Z,78.41
2023-01-27T07:36:04.619Z,77.02
2023-01-27T07:40:17.315Z,77.80
2023-01-27T07:44:29.743Z,78.53
2023-01-27T07:48:42.099Z,77.45
2023-01-27T07:52:56.056Z,77.75
2023-01-27T07:57:08.498Z,76.83
2023-01-27T08:01:20.844Z,75.21
2023-01-27T08:05:34.910Z,74.98
2023-01-27T08:09:47.258Z,72.62
2023-01-27T08:14:00.625Z,73.39
2023-01-27T08:18:13.096Z,71.44
2023-01-27T08:22:30.227Z,72.89
2023-01-27T08:26:42.686Z,72.92
2023-01-27T08:30:55.607Z,71.71
2023-01-27T08:35:08.366Z,71.68
2023-01-27T08:39:22.637Z,70.40
2023-01-27T08:43:35.370Z,69.51
2023-01-27T08:47:48.009Z,67.88
2023-01-27T08:52:00.416Z,68.54
2023-01-27T08:56:15.227Z,69.11
2023-01-27T09:00:28.120Z,66.68
2023-01-27T09:04:44.556Z,66.01
2023-01-27T09:09:19.928Z,61.54
2023-01-27T09:13:32.735Z,60.96
2023-01-27T09:17:45.506Z,60.81
2023-01-27T09:21:59.641Z,62.05
2023-01-27T09:26:12.063Z,60.81
2023-01-27T09:30:25.986Z,60.69
2023-01-27T09:34:39.076Z,61.48
2023-01-27T09:39:09.389Z,62.53
2023-01-27T09:43:36.631Z,60.01
2023-01-27T09:47:59.125Z,59.52
2023-01-27T09:52:46.889Z,58.25
2023-01-27T09:57:27.952Z,58.24
2023-01-27T10:01:52.650Z,59.96
2023-01-27T10:06:35.011Z,60.69
2023-01-27T10:10:53.346Z,61.25
2023-01-27T10:15:46.441Z,61.96
2023-01-27T10:20:19.390Z,62.26
2023-01-27T10:24:45.227Z,62.78
2023-01-27T10:29:26.199Z,61.07
2023-01-27T10:33:38.492Z,61.75
2023-01-27T10:38:21.031Z,61.22
2023-01-27T10:43:07.308Z,60.33
2023-01-27T10:47:35.033Z,57.99
2023-01-27T10:52:11.661Z,57.38
2023-01-27T10:56:50.002Z,55.43
2023-01-27T11:01:20.783Z,52.22
2023-01-27T11:05:38.931Z,49.28
2023-01-27T11:10:06.353Z,49.13
2023-01-27T11:14:30.394Z,48.36
2023-01-27T11:18:46.891Z,49.42
2023-01-27T11:23:17.972Z,45.48
2023-01-27T11:27:53.366Z,46.93
2023-01-27T11:32:19.848Z,46.58
2023-01-27T11:36:34.883Z,47.76
2023-01-27T11:40:51.509Z,47.08
2023-01-27T11:45:04.757Z,45.40
2023-01-27T11:49:23.853Z,42.41
2023-01-27T11:53:40.548Z,43.17
2023-01-27T11:58:16.182Z,43.63
2023-01-27T12:02:37.570Z,41.93
2023-01-27T12:07:12.328Z,43.01
2023-01-27T12:11:30.518Z,42.96
2023-01-27T12:16:04.844Z,42.24
2023-01-27T12:20:17.434Z,43.57
2023-01-27T12:24:36.554Z,40.56
2023-01-27T12:28:55.096Z,36.84
2023-01-27T12:33:22.986Z,36.06
2023-01-27T12:37:38.866Z,41.08
2023-01-27T12:41:51.708Z,43.16
2023-01-27T12:46:16.186Z,43.37
2023-01-27T12:50:32.874Z,42.84
2023-01-27T12:54:45.296Z,43.95
2023-01-27T12:58:59.759Z,42.67
2023-01-27T13:03:13.711Z,43.36
2023-01-27T13:07:30.942Z,44.61
2023-01-27T13:11:45.711Z,44.48
2023-01-27T13:16:08.804Z,44.59
2023-01-27T13:20:56.436Z,43.93
2023-01-27T13:25:18.629Z,45.03
2023-01-27T13:29:35.215Z,46.14
2023-01-27T13:33:53.501Z,46.56
2023-01-27T13:38:21.020Z,46.30
2023-01-27T13:42:44.099Z,46.52
2023-01-27T13:47:03.140Z,46.96
2023-01-27T13:51:21.501Z,45.41
2023-01-27T13:56:17.469Z,45.57
2023-01-27T14:00:52.324Z,45.68
2023-01-27T14:05:19.765Z,44.94
2023-01-27T14:09:53.901Z,46.06
2023-01-27T14:14:25.728Z,46.51
2023-01-27T14:18:46.775Z,47.62
2023-01-27T14:23:09.889Z,48.28
2023-01-27T14:27:32.906Z,47.43
2023-01-27T14:32:03.493Z,48.21
2023-01-27T14:36:21.901Z,49.73
2023-01-27T14:40:54.224Z,48.70
2023-01-27T14:45:32.111Z,47.69
2023-01-27T14:50:06.279Z,50.46
2023-01-27T14:54:29.392Z,49.70
2023-01-27T14:58:41.692Z,49.98
2023-01-27T15:03:32.964Z,50.68
2023-01-27T15:08:01.011Z,51.21
2023-01-27T15:12:44.519Z,50.39
2023-01-27T15:17:53.958Z,53.03
2023-01-27T15:22:33.752Z,52.82
2023-01-27T15:26:48.252Z,53.35
2023-01-27T15:31:07.183Z,54.34
2023-01-27T15:35:22.416Z,56.26
2023-01-27T15:40:15.700Z,55.92
2023-01-27T15:44:40.960Z,56.80
2023-01-27T15:48:55.619Z,56.94
2023-01-27T15:53:32.808Z,59.50
2023-01-27T15:57:45.431Z,57.56
2023-01-27T16:02:17.497Z,57.91
2023-01-27T16:06:31.499Z,56.61
2023-01-27T16:10:45.359Z,57.31
2023-01-27T16:15:16.173Z,57.10
2023-01-27T16:19:38.928Z,57.94
2023-01-27T16:24:01.973Z,57.31
2023-01-27T16:28:18.887Z,57.15
2023-01-27T16:32:41.672Z,57.44
2023-01-27T16:37:15.894Z,57.09
2023-01-27T16:41:32.949Z,56.92
2023-01-27T16:45:53.874Z,56.19
2023-01-27T16:50:06.851Z,56.17
2023-01-27T16:54:26.521Z,57.99
2023-01-27T16:58:46.730Z,59.52
2023-01-27T17:03:06.335Z,60.37
2023-01-27T17:07:19.013Z,61.75
2023-01-27T17:11:35.821Z,62.38
2023-01-27T17:15:57.785Z,61.70
2023-01-27T17:20:30.622Z,61.70
2023-01-27T17:24:53.062Z,61.55
2023-01-27T17:29:05.634Z,61.16
2023-01-27T17:33:21.059Z,61.10
2023-01-27T17:37:33.612Z,62.18
2023-01-27T17:41:46.443Z,61.57
2023-01-27T17:46:20.438Z,61.91
2023-01-27T17:50:39.820Z,62.76
2023-01-27T17:54:52.589Z,63.30
2023-01-27T17:59:21.294Z,63.25
2023-01-27T18:03:36.841Z,64.42
2023-01-27T18:07:49.662Z,64.46
2023-01-27T18:12:05.411Z,65.92
2023-01-27T18:16:20.648Z,67.01
2023-01-27T18:20:36.435Z,67.51
2023-01-27T18:24:55.372Z,67.41
2023-01-27T18:29:21.317Z,69.12
2023-01-27T18:33:34.296Z,70.22
2023-01-27T18:37:58.895Z,70.23
2023-01-27T18:42:15.542Z,70.51
2023-01-27T18:46:28.355Z,70.57
2023-01-27T18:50:46.272Z,68.97
2023-01-27T18:55:03.032Z,69.13
2023-01-27T18:59:15.458Z,70.04
2023-01-27T19:03:30.859Z,71.74
2023-01-27T19:07:43.288Z,70.46
2023-01-27T19:11:57.430Z,70.23
2023-01-27T19:20:30.644Z,69.07
2023-01-27T19:24:47.429Z,69.33
2023-01-27T19:28:59.892Z,69.85
2023-01-27T19:33:25.543Z,68.50
2023-01-27T19:37:39.025Z,67.41
2023-01-27T19:41:51.805Z,71.16
2023-01-27T19:46:13.917Z,69.46
2023-01-27T19:50:28.838Z,70.53
2023-01-27T19:54:41.212Z,68.97
2023-01-27T19:58:54.444Z,70.77
2023-01-27T20:03:07.902Z,70.92
2023-01-27T20:07:20.318Z,71.83
2023-01-27T20:11:37.216Z,72.15
2023-01-27T20:15:49.726Z,72.19
2023-01-27T20:20:02.337Z,73.29
2023-01-27T20:24:20.180Z,73.08
2023-01-27T20:28:32.671Z,72.68
2023-01-27T20:32:45.456Z,73.26
2023-01-27T20:36:58.065Z,72.33
2023-01-27T20:41:14.437Z,72.31
2023-01-27T20:45:26.840Z,72.33
2023-01-27T20:49:39.611Z,73.66
2023-01-27T20:53:52.249Z,74.17
2023-01-27T20:58:04.756Z,75.29
2023-01-27T21:02:17.356Z,76.06
2023-01-27T21:06:29.956Z,75.80
2023-01-27T21:10:43.431Z,75.88
2023-01-27T21:14:59.306Z,76.43
2023-01-27T21:19:12.475Z,76.18
2023-01-27T21:23:29.322Z,77.13
2023-01-27T21:27:48.221Z,77.32
2023-01-27T21:32:01.460Z,77.91
2023-01-27T21:36:14.603Z,75.98
2023-01-27T21:40:27.542Z,76.01
2023-01-27T21:44:58.206Z,74.62
2023-01-27T21:49:10.402Z,74.70
2023-01-27T21:53:23.845Z,75.35
2023-01-27T21:57:36.664Z,76.60
2023-01-27T22:01:49.103Z,75.30
2023-01-27T22:06:08.580Z,75.12
2023-01-27T22:10:26.723Z,75.64
2023-01-27T22:14:39.060Z,72.91
2023-01-27T22:18:51.461Z,72.22
2023-01-27T22:23:03.816Z,71.85
2023-01-27T22:27:16.184Z,71.80
2023-01-27T22:31:28.730Z,69.48
2023-01-27T22:35:41.387Z,69.56
2023-01-27T22:39:53.684Z,69.98
2023-01-27T22:44:06.206Z,69.91
2023-01-27T22:48:18.522Z,69.45
2023-01-27T22:52:30.960Z,70.54
2023-01-27T22:56:43.590Z,69.91
2023-01-27T23:00:56.484Z,69.85
2023-01-27T23:05:10.151Z,69.61
2023-01-27T23:09:23.195Z,70.17
2023-01-27T23:13:36.702Z,69.62
2023-01-27T23:17:49.946Z,69.25
2023-01-27T23:22:03.547Z,68.37
2023-01-27T23:26:17.267Z,69.64
2023-01-27T23:30:29.712Z,68.23
2023-01-27T23:34:42.157Z,68.87
2023-01-27T23:38:54.484Z,66.96
2023-01-27T23:43:07.120Z,68.72
2023-01-27T23:47:19.454Z,70.44
2023-01-27T23:51:32.181Z,71.35
2023-01-27T23:55:44.962Z,70.62
2023-01-27T23:59:57.270Z,70.71
